Time;durP1;ratioP1;P1;durP2;ratioP2;P2;SDS_P1;SDS_P2;PMS_P1;PMS_P2;Temp;Humidity;BMP_temperature;BMP_pressure;BME280_temperature;BME280_humidity;BME280_pressure;Samples;Min_cycle;Max_cycle;Signal;HPM_P1;HPM_P2
2023/01/06 00:01:08;;;;;;;;;;;;;;;11.69;nan;102153.16;5043099;28;19921;-32
2023/01/06 00:03:33;;;;;;;;;;;;;;;11.65;nan;102157.31;5044716;28;20294;-32
2023/01/06 00:05:59;;;;;;;;;;;;;;;11.63;nan;102164.75;5042835;28;19924;-32
2023/01/06 00:08:25;;;;;;;;;;;;;;;11.61;nan;102162.31;5044980;28;20362;-32
2023/01/06 00:10:50;;;;;;;;;;;;;;;11.60;nan;102163.34;5042837;28;19923;-32
2023/01/06 00:13:15;;;;;;;;;;;;;;;11.60;nan;102170.56;5040551;28;19916;-32
2023/01/06 00:15:41;;;;;;;;;;;;;;;11.60;nan;102160.66;5040956;28;19925;-32
2023/01/06 00:18:06;;;;;;;;;;;;;;;11.59;nan;102159.03;5042780;28;19925;-32
2023/01/06 00:20:33;;;;;;;;;;;;;;;11.60;nan;102160.66;5041998;28;19948;-32
2023/01/06 00:22:58;;;;;;;;;;;;;;;11.60;nan;102155.28;5043014;28;20291;-32
2023/01/06 00:25:23;;;;;;;;;;;;;;;11.59;nan;102159.03;5047039;28;19917;-32
2023/01/06 00:27:49;;;;;;;;;;;;;;;11.56;nan;102156.78;5042648;28;20397;-32
2023/01/06 00:30:14;;;;;;;;;;;;;;;11.52;nan;102160.13;5043157;28;19924;-32
2023/01/06 00:32:39;;;;;;;;;;;;;;;11.47;nan;102158.91;5039700;28;19917;-32
2023/01/06 00:35:05;;;;;;;;;;;;;;;11.46;nan;102168.00;5045753;28;20023;-32
2023/01/06 00:37:30;;;;;;;;;;;;;;;11.45;nan;102173.59;5037875;28;20378;-32
2023/01/06 00:39:56;;;;;;;;;;;;;;;11.43;nan;102162.25;5040480;28;19917;-32
2023/01/06 00:42:23;;;;;;;;;;;;;;;11.41;nan;102151.75;5045653;28;19917;-32
2023/01/06 00:44:49;;;;;;;;;;;;;;;11.39;nan;102161.88;5043553;28;20198;-32
2023/01/06 00:47:14;;;;;;;;;;;;;;;11.41;nan;102167.84;5040315;28;20406;-32
2023/01/06 00:49:40;;;;;;;;;;;;;;;11.43;nan;102175.66;5037850;28;19929;-32
2023/01/06 00:52:05;;;;;;;;;;;;;;;11.42;nan;102182.09;5041946;28;19920;-32
2023/01/06 00:54:30;;;;;;;;;;;;;;;11.41;nan;102172.38;5045059;28;19948;-32
2023/01/06 00:56:56;;;;;;;;;;;;;;;11.41;nan;102177.75;5042017;28;19973;-32
2023/01/06 00:59:22;;;;;;;;;;;;;;;11.40;nan;102174.25;5043606;28;19942;-32
2023/01/06 01:01:48;;;;;;;;;;;;;;;11.38;nan;102172.84;5039440;28;19920;-32
2023/01/06 01:04:14;;;;;;;;;;;;;;;11.35;nan;102168.72;5042030;28;19953;-32
2023/01/06 01:06:40;;;;;;;;;;;;;;;11.35;nan;102162.53;5043255;28;20137;-32
2023/01/06 01:09:06;;;;;;;;;;;;;;;11.35;nan;102167.91;5041563;28;20366;-32
2023/01/06 01:14:16;;;;;;;;;;;;;;;11.33;nan;102157.41;5039763;28;19927;-32
2023/01/06 01:16:42;;;;;;;;;;;;;;;11.33;nan;102170.81;5038978;28;19952;-32
2023/01/06 01:19:08;;;;;;;;;;;;;;;11.33;nan;102165.44;5042164;28;19952;-32
2023/01/06 01:21:33;;;;;;;;;;;;;;;11.34;nan;102168.94;5043007;28;19917;-32
2023/01/06 01:23:58;;;;;;;;;;;;;;;11.34;nan;102171.63;5045163;28;19924;-32
2023/01/06 01:26:24;;;;;;;;;;;;;;;11.36;nan;102164.19;5039961;28;19982;-32
2023/01/06 01:28:49;;;;;;;;;;;;;;;11.37;nan;102171.19;5038884;28;19967;-32
2023/01/06 01:31:15;;;;;;;;;;;;;;;11.39;nan;102163.75;5041963;28;19925;-32
2023/01/06 01:33:40;;;;;;;;;;;;;;;11.37;nan;102163.97;5044779;28;19952;-32
2023/01/06 01:36:07;;;;;;;;;;;;;;;11.36;nan;102158.81;5040979;28;19929;-32
2023/01/06 01:38:32;;;;;;;;;;;;;;;11.33;nan;102159.25;5043795;28;19924;-32
2023/01/06 01:40:57;;;;;;;;;;;;;;;11.29;nan;102152.66;5040019;28;19917;-32
2023/01/06 01:43:23;;;;;;;;;;;;;;;11.24;nan;102155.19;5039371;28;19916;-32
2023/01/06 01:45:51;;;;;;;;;;;;;;;11.20;nan;102155.63;5039866;28;19956;-32
2023/01/06 01:48:25;;;;;;;;;;;;;;;11.19;nan;102159.34;5040316;28;19920;-32
2023/01/06 01:50:52;;;;;;;;;;;;;;;11.18;nan;102162.25;5039073;28;19921;-32
2023/01/06 01:53:39;;;;;;;;;;;;;;;11.14;nan;102164.56;5043133;28;19924;-32
2023/01/06 01:56:07;;;;;;;;;;;;;;;11.09;nan;102158.16;5041246;28;20020;-32
2023/01/06 01:58:37;;;;;;;;;;;;;;;11.05;nan;102155.09;5041531;28;20445;-32
2023/01/06 02:01:03;;;;;;;;;;;;;;;11.04;nan;102153.47;5041524;28;19921;-32
2023/01/06 02:03:28;;;;;;;;;;;;;;;11.05;nan;102146.25;5039510;28;20417;-32
2023/01/06 02:05:59;;;;;;;;;;;;;;;11.03;nan;102137.59;5046851;28;20445;-32
2023/01/06 02:08:37;;;;;;;;;;;;;;;11.01;nan;102127.09;5046591;28;19917;-32
2023/01/06 02:11:03;;;;;;;;;;;;;;;11.00;nan;102133.50;5045066;28;19924;-32
2023/01/06 02:13:29;;;;;;;;;;;;;;;11.00;nan;102136.16;5044533;28;19916;-32
2023/01/06 02:16:04;;;;;;;;;;;;;;;11.00;nan;102132.66;5043100;28;19920;-32
2023/01/06 02:18:58;;;;;;;;;;;;;;;10.98;nan;102145.47;5045711;28;19917;-32
2023/01/06 02:21:42;;;;;;;;;;;;;;;10.96;nan;102153.75;5040877;28;19924;-32
2023/01/06 02:24:26;;;;;;;;;;;;;;;10.93;nan;102145.28;5042717;28;19917;-32
2023/01/06 02:27:00;;;;;;;;;;;;;;;10.89;nan;102137.69;5046124;28;19925;-32
2023/01/06 02:29:26;;;;;;;;;;;;;;;10.88;nan;102141.41;5043464;28;20413;-32
2023/01/06 02:31:54;;;;;;;;;;;;;;;10.90;nan;102143.84;5044548;28;20227;-32
2023/01/06 02:34:32;;;;;;;;;;;;;;;10.89;nan;102143.03;5045909;28;19923;-32
2023/01/06 02:37:16;;;;;;;;;;;;;;;10.88;nan;102140.56;5045010;28;19943;-32
2023/01/06 02:39:41;;;;;;;;;;;;;;;10.84;nan;102134.00;5046733;28;19917;-32
2023/01/06 02:42:25;;;;;;;;;;;;;;;10.82;nan;102120.00;5045645;28;19928;-32
2023/01/06 02:45:08;;;;;;;;;;;;;;;10.81;nan;102119.19;5046314;28;19920;-32
2023/01/06 02:47:41;;;;;;;;;;;;;;;10.82;nan;102114.63;5041363;28;21483;-32
2023/01/06 02:50:12;;;;;;;;;;;;;;;10.84;nan;102109.88;5043349;28;19931;-32
2023/01/06 02:52:57;;;;;;;;;;;;;;;10.82;nan;102110.09;5045873;28;19928;-32
2023/01/06 02:55:33;;;;;;;;;;;;;;;10.82;nan;102112.78;5044958;28;19928;-32
2023/01/06 02:58:04;;;;;;;;;;;;;;;10.86;nan;102118.53;5041531;28;20170;-32
2023/01/06 03:00:34;;;;;;;;;;;;;;;10.89;nan;102123.44;5042046;28;19916;-32
2023/01/06 03:03:06;;;;;;;;;;;;;;;10.90;nan;102115.19;5041616;28;21357;-32
2023/01/06 03:05:33;;;;;;;;;;;;;;;10.93;nan;102116.59;5043800;28;19917;-32
2023/01/06 03:08:01;;;;;;;;;;;;;;;10.96;nan;102116.19;5046980;28;19917;-32
2023/01/06 03:10:28;;;;;;;;;;;;;;;10.97;nan;102108.97;5042322;28;20039;-32
2023/01/06 03:12:59;;;;;;;;;;;;;;;10.99;nan;102102.34;5046775;28;19917;-32
2023/01/06 03:15:24;;;;;;;;;;;;;;;11.00;nan;102104.00;5040108;28;20024;-32
2023/01/06 03:17:50;;;;;;;;;;;;;;;10.99;nan;102107.72;5045891;28;20478;-32
2023/01/06 03:20:16;;;;;;;;;;;;;;;10.99;nan;102113.06;5039336;28;19933;-32
2023/01/06 03:22:42;;;;;;;;;;;;;;;11.00;nan;102114.72;5038181;28;19931;-32
2023/01/06 03:25:08;;;;;;;;;;;;;;;10.96;nan;102102.78;5041572;28;19921;-32
2023/01/06 03:27:33;;;;;;;;;;;;;;;10.96;nan;102105.47;5043468;28;19944;-32
2023/01/06 03:29:59;;;;;;;;;;;;;;;10.93;nan;102102.38;5045866;28;19943;-32
2023/01/06 03:32:27;;;;;;;;;;;;;;;10.90;nan;102109.81;5046306;28;19927;-32
2023/01/06 03:34:53;;;;;;;;;;;;;;;10.87;nan;102104.06;5045769;28;20162;-32
2023/01/06 03:37:25;;;;;;;;;;;;;;;10.83;nan;102098.34;5039250;28;20372;-32
2023/01/06 03:40:05;;;;;;;;;;;;;;;10.78;nan;102098.16;5040633;28;19975;-32
2023/01/06 03:45:34;;;;;;;;;;;;;;;10.59;nan;102078.50;5046984;28;19970;-32
2023/01/06 03:47:59;;;;;;;;;;;;;;;10.56;nan;102086.13;5041703;28;19971;-32
2023/01/06 03:50:29;;;;;;;;;;;;;;;10.55;nan;102084.47;5043834;28;19940;-32
2023/01/06 03:53:16;;;;;;;;;;;;;;;10.51;nan;102081.41;5047027;28;20000;-32
2023/01/06 03:55:45;;;;;;;;;;;;;;;10.47;nan;102093.59;5042474;28;19968;-32
2023/01/06 03:58:11;;;;;;;;;;;;;;;10.47;nan;102096.28;5041413;28;20423;-32
2023/01/06 04:00:36;;;;;;;;;;;;;;;10.44;nan;102091.34;5044586;28;19924;-32
2023/01/06 04:03:06;;;;;;;;;;;;;;;10.41;nan;102091.78;5046499;28;19924;-32
2023/01/06 04:05:31;;;;;;;;;;;;;;;10.35;nan;102087.25;5043116;28;19923;-32
2023/01/06 04:07:57;;;;;;;;;;;;;;;10.34;nan;102084.81;5045098;28;19932;-32
2023/01/06 04:10:22;;;;;;;;;;;;;;;10.33;nan;102092.03;5039908;28;19971;-32
2023/01/06 04:12:48;;;;;;;;;;;;;;;10.33;nan;102075.13;5041828;28;19920;-32
2023/01/06 04:15:14;;;;;;;;;;;;;;;10.29;nan;102066.69;5041546;28;19983;-32
2023/01/06 04:17:40;;;;;;;;;;;;;;;10.27;nan;102058.88;5043942;28;20539;-32
2023/01/06 04:20:07;;;;;;;;;;;;;;;10.29;nan;102053.31;5042219;28;19917;-32
2023/01/06 04:22:32;;;;;;;;;;;;;;;10.31;nan;102053.91;5044166;28;20378;-32
2023/01/06 04:24:57;;;;;;;;;;;;;;;10.32;nan;102050.19;5045405;28;19993;-32
2023/01/06 04:27:23;;;;;;;;;;;;;;;10.35;nan;102044.41;5044674;28;20394;-32
2023/01/06 04:29:48;;;;;;;;;;;;;;;10.39;nan;102047.47;5040937;28;20342;-32
2023/01/06 04:32:13;;;;;;;;;;;;;;;10.38;nan;102041.28;5044887;28;19944;-32
2023/01/06 04:34:39;;;;;;;;;;;;;;;10.40;nan;102047.25;5045728;28;19932;-32
2023/01/06 04:37:04;;;;;;;;;;;;;;;10.37;nan;102042.31;5044372;28;20558;-32
2023/01/06 04:39:29;;;;;;;;;;;;;;;10.41;nan;102048.06;5046513;28;19917;-32
2023/01/06 04:41:55;;;;;;;;;;;;;;;10.37;nan;102050.38;5043085;28;19949;-32
2023/01/06 04:44:20;;;;;;;;;;;;;;;10.38;nan;102057.34;5044182;28;20015;-32
2023/01/06 04:46:45;;;;;;;;;;;;;;;10.35;nan;102052.44;5040997;28;19921;-32
2023/01/06 04:49:11;;;;;;;;;;;;;;;10.36;nan;102046.03;5046153;28;19924;-32
2023/01/06 04:51:36;;;;;;;;;;;;;;;10.34;nan;102058.00;5043942;28;20353;-32
2023/01/06 04:54:01;;;;;;;;;;;;;;;10.32;nan;102050.19;5040937;28;19920;-32
2023/01/06 04:56:26;;;;;;;;;;;;;;;10.35;nan;102040.91;5043300;28;20019;-32
2023/01/06 04:58:54;;;;;;;;;;;;;;;10.36;nan;102047.91;5044454;28;19917;-32
2023/01/06 05:01:19;;;;;;;;;;;;;;;10.33;nan;102040.31;5043291;28;19921;-32
2023/01/06 05:03:44;;;;;;;;;;;;;;;10.29;nan;102029.19;5044814;28;19998;-32
2023/01/06 05:06:10;;;;;;;;;;;;;;;10.26;nan;102026.94;5045043;28;21462;-32
2023/01/06 05:08:39;;;;;;;;;;;;;;;10.26;nan;102029.63;5040824;28;19917;-32
2023/01/06 05:11:25;;;;;;;;;;;;;;;10.28;nan;102022.19;5039085;28;20405;-32
2023/01/06 05:13:51;;;;;;;;;;;;;;;10.27;nan;102021.38;5039800;28;19921;-32
2023/01/06 05:16:27;;;;;;;;;;;;;;;10.26;nan;102025.09;5040020;28;19921;-32
2023/01/06 05:18:53;;;;;;;;;;;;;;;10.26;nan;102011.69;5042129;28;19924;-32
2023/01/06 05:21:18;;;;;;;;;;;;;;;10.24;nan;102010.28;5044106;28;19920;-32
2023/01/06 05:23:44;;;;;;;;;;;;;;;10.25;nan;102012.75;5040912;28;19931;-32
2023/01/06 05:26:14;;;;;;;;;;;;;;;10.19;nan;102016.22;5041381;28;19917;-31
2023/01/06 05:28:39;;;;;;;;;;;;;;;10.19;nan;102012.72;5040750;28;19927;-31
2023/01/06 05:31:05;;;;;;;;;;;;;;;10.16;nan;102010.47;5044487;28;20306;-32
2023/01/06 05:33:31;;;;;;;;;;;;;;;10.15;nan;102017.69;5044212;28;19921;-34
2023/01/06 05:36:00;;;;;;;;;;;;;;;10.19;nan;102013.53;5042529;28;19975;-38
2023/01/06 05:38:25;;;;;;;;;;;;;;;10.21;nan;102005.31;5044352;28;20375;-37
2023/01/06 05:40:51;;;;;;;;;;;;;;;10.16;nan;101999.75;5043426;28;20004;-35
2023/01/06 05:43:16;;;;;;;;;;;;;;;10.16;nan;101995.22;5046786;28;19931;-36
2023/01/06 05:45:41;;;;;;;;;;;;;;;10.13;nan;101993.00;5043782;28;19959;-38
2023/01/06 05:48:07;;;;;;;;;;;;;;;10.09;nan;101988.28;5045747;28;19952;-36
2023/01/06 05:50:32;;;;;;;;;;;;;;;10.11;nan;101988.88;5048072;28;19917;-35
2023/01/06 05:52:57;;;;;;;;;;;;;;;10.12;nan;101983.31;5046853;28;19917;-37
2023/01/06 05:55:23;;;;;;;;;;;;;;;10.14;nan;101978.56;5040464;28;19928;-36
2023/01/06 05:57:48;;;;;;;;;;;;;;;10.09;nan;101974.91;5042172;28;19922;-35
2023/01/06 06:00:14;;;;;;;;;;;;;;;10.08;nan;101967.91;5048375;28;19970;-35
2023/01/06 06:02:39;;;;;;;;;;;;;;;10.10;nan;101961.28;5047959;28;20402;-36
2023/01/06 06:05:05;;;;;;;;;;;;;;;10.12;nan;101969.94;5045158;28;19939;-38
2023/01/06 06:07:30;;;;;;;;;;;;;;;10.14;nan;101969.72;5044694;28;20413;-38
2023/01/06 06:09:55;;;;;;;;;;;;;;;10.15;nan;101963.31;5045129;28;20289;-38
2023/01/06 06:12:21;;;;;;;;;;;;;;;10.08;nan;101968.72;5041732;28;19920;-38
2023/01/06 06:14:46;;;;;;;;;;;;;;;10.10;nan;101966.66;5048004;28;20331;-38
2023/01/06 06:17:11;;;;;;;;;;;;;;;10.15;nan;101968.66;5043405;28;20360;-38
2023/01/06 06:19:37;;;;;;;;;;;;;;;10.18;nan;101968.22;5047952;28;20448;-36
2023/01/06 06:22:02;;;;;;;;;;;;;;;10.23;nan;101965.75;5043522;28;19927;-36
2023/01/06 06:24:27;;;;;;;;;;;;;;;10.19;nan;101962.66;5042401;28;19917;-35
2023/01/06 06:26:53;;;;;;;;;;;;;;;10.13;nan;101949.31;5046669;28;20509;-38
2023/01/06 06:29:18;;;;;;;;;;;;;;;10.11;nan;101946.03;5047924;28;20283;-37
2023/01/06 06:31:43;;;;;;;;;;;;;;;10.07;nan;101932.28;5047189;28;20423;-37
2023/01/06 06:34:09;;;;;;;;;;;;;;;10.04;nan;101923.81;5044878;28;20298;-37
2023/01/06 06:36:35;;;;;;;;;;;;;;;10.04;nan;101916.59;5043496;28;19920;-38
2023/01/06 06:39:00;;;;;;;;;;;;;;;9.99;nan;101911.09;5044927;28;19932;-36
2023/01/06 06:41:25;;;;;;;;;;;;;;;9.98;nan;101920.16;5038941;28;19923;-35
2023/01/06 06:43:51;;;;;;;;;;;;;;;9.97;nan;101918.50;5046968;28;19970;-38
2023/01/06 06:46:17;;;;;;;;;;;;;;;9.96;nan;101917.69;5043901;28;20349;-36
2023/01/06 06:48:43;;;;;;;;;;;;;;;9.95;nan;101912.56;5041318;28;20375;-35
2023/01/06 06:51:09;;;;;;;;;;;;;;;9.88;nan;101907.25;5040371;28;19940;-38
2023/01/06 06:53:35;;;;;;;;;;;;;;;9.90;nan;101913.22;5045369;28;20446;-37
2023/01/06 06:56:02;;;;;;;;;;;;;;;9.90;nan;101905.19;5047247;28;20035;-35
2023/01/06 06:58:27;;;;;;;;;;;;;;;9.87;nan;101902.91;5043830;28;20322;-38
2023/01/06 07:00:53;;;;;;;;;;;;;;;9.89;nan;101911.56;5041616;28;19916;-37
2023/01/06 07:03:19;;;;;;;;;;;;;;;9.91;nan;101909.50;5046124;28;19925;-37
2023/01/06 07:05:45;;;;;;;;;;;;;;;9.94;nan;101909.06;5040929;28;19932;-36
2023/01/06 07:08:11;;;;;;;;;;;;;;;9.97;nan;101916.66;5041878;28;19962;-38
2023/01/06 07:10:36;;;;;;;;;;;;;;;9.99;nan;101911.09;5047434;28;19955;-36
2023/01/06 07:13:02;;;;;;;;;;;;;;;10.00;nan;101912.72;5040550;28;19920;-38
2023/01/06 07:15:27;;;;;;;;;;;;;;;10.03;nan;101900.75;5041897;28;19971;-37
2023/01/06 07:17:53;;;;;;;;;;;;;;;10.02;nan;101901.78;5043890;28;19917;-36
2023/01/06 07:20:18;;;;;;;;;;;;;;;10.02;nan;101909.81;5045764;28;19921;-36
2023/01/06 07:22:43;;;;;;;;;;;;;;;10.05;nan;101909.41;5047126;28;20642;-36
2023/01/06 07:25:09;;;;;;;;;;;;;;;10.03;nan;101922.19;5036580;28;20430;-35
2023/01/06 07:27:34;;;;;;;;;;;;;;;10.02;nan;101928.56;5041347;28;19917;-37
2023/01/06 07:30:00;;;;;;;;;;;;;;;10.00;nan;101923.44;5044602;28;20371;-35
2023/01/06 07:32:26;;;;;;;;;;;;;;;10.00;nan;101908.19;5043250;28;19916;-36
2023/01/06 07:34:51;;;;;;;;;;;;;;;9.99;nan;101893.16;5045450;28;20470;-36
2023/01/06 07:37:16;;;;;;;;;;;;;;;10.02;nan;101889.22;5041460;28;20163;-36
2023/01/06 07:39:42;;;;;;;;;;;;;;;10.06;nan;101879.75;5039032;28;19917;-38
2023/01/06 07:42:08;;;;;;;;;;;;;;;10.10;nan;101885.50;5038498;28;19920;-36
2023/01/06 07:44:33;;;;;;;;;;;;;;;10.09;nan;101882.00;5043556;28;20010;-38
2023/01/06 07:46:58;;;;;;;;;;;;;;;10.05;nan;101871.91;5037053;28;20337;-37
2023/01/06 07:49:23;;;;;;;;;;;;;;;10.05;nan;101866.56;5039669;28;20382;-36
2023/01/06 07:51:52;;;;;;;;;;;;;;;9.98;nan;101856.72;5039671;28;20402;-37
2023/01/06 07:54:17;;;;;;;;;;;;;;;9.94;nan;101842.13;5041231;28;20287;-39
2023/01/06 07:56:43;;;;;;;;;;;;;;;9.91;nan;101842.56;5039312;28;19920;-40
2023/01/06 07:59:08;;;;;;;;;;;;;;;9.84;nan;101846.31;5042842;28;20436;-38
2023/01/06 08:01:34;;;;;;;;;;;;;;;9.87;nan;101849.38;5035381;28;20307;-38
2023/01/06 08:03:59;;;;;;;;;;;;;;;9.86;nan;101847.72;5036783;28;19920;-39
2023/01/06 08:06:24;;;;;;;;;;;;;;;9.86;nan;101841.56;5039145;28;19921;-38
2023/01/06 08:08:50;;;;;;;;;;;;;;;9.88;nan;101844.88;5036613;28;19927;-39
2023/01/06 08:11:15;;;;;;;;;;;;;;;9.86;nan;101846.91;5033279;28;19924;-41
2023/01/06 08:13:41;;;;;;;;;;;;;;;9.87;nan;101848.56;5038448;28;19920;-40
2023/01/06 08:16:07;;;;;;;;;;;;;;;9.81;nan;101854.78;5042402;28;19929;-39
2023/01/06 08:18:33;;;;;;;;;;;;;;;9.75;nan;101851.13;5040231;28;19999;-41
2023/01/06 08:21:02;;;;;;;;;;;;;;;9.79;nan;101852.31;5036456;28;20031;-40
2023/01/06 08:23:28;;;;;;;;;;;;;;;9.79;nan;101836.25;5032933;28;19921;-40
2023/01/06 08:26:00;;;;;;;;;;;;;;;9.81;nan;101823.47;5039178;28;19944;-40
2023/01/06 08:28:26;;;;;;;;;;;;;;;9.86;nan;101826.31;5039637;28;20435;-38
2023/01/06 08:30:51;;;;;;;;;;;;;;;9.93;nan;101831.66;5034345;28;19950;-38
2023/01/06 08:33:18;;;;;;;;;;;;;;;9.89;nan;101823.22;5037137;28;19921;-38
2023/01/06 08:35:46;;;;;;;;;;;;;;;9.89;nan;101820.56;5037389;28;20381;-39
2023/01/06 08:38:11;;;;;;;;;;;;;;;9.94;nan;101818.03;5034940;28;20433;-39
2023/01/06 08:40:37;;;;;;;;;;;;;;;9.85;nan;101815.84;5037403;28;19927;-40
2023/01/06 08:43:02;;;;;;;;;;;;;;;9.80;nan;101808.47;5036101;28;19925;-39
2023/01/06 08:45:27;;;;;;;;;;;;;;;9.79;nan;101789.94;5041007;28;19925;-39
2023/01/06 08:47:53;;;;;;;;;;;;;;;9.77;nan;101786.66;5040583;28;20011;-39
2023/01/06 08:50:18;;;;;;;;;;;;;;;9.66;nan;101793.53;5041165;28;20145;-39
2023/01/06 08:52:43;;;;;;;;;;;;;;;9.72;nan;101795.34;5039926;28;19921;-38
2023/01/06 08:55:09;;;;;;;;;;;;;;;9.64;nan;101800.94;5038873;28;19921;-39
2023/01/06 08:57:36;;;;;;;;;;;;;;;9.64;nan;101790.25;5037464;28;21326;-37
2023/01/06 09:00:03;;;;;;;;;;;;;;;9.64;nan;101785.72;5042533;28;19931;-39
2023/01/06 09:02:30;;;;;;;;;;;;;;;9.58;nan;101772.41;5037492;28;19955;-39
2023/01/06 09:04:55;;;;;;;;;;;;;;;9.59;nan;101766.81;5039916;28;20378;-37
2023/01/06 09:07:20;;;;;;;;;;;;;;;9.61;nan;101759.41;5038470;28;19927;-39
2023/01/06 09:09:46;;;;;;;;;;;;;;;9.56;nan;101747.72;5038285;28;19935;-37
2023/01/06 09:12:11;;;;;;;;;;;;;;;9.58;nan;101754.47;5034746;28;19928;-38
2023/01/06 09:14:36;;;;;;;;;;;;;;;9.51;nan;101731.47;5042970;28;20677;-40
2023/01/06 09:17:02;;;;;;;;;;;;;;;9.51;nan;101743.00;5041211;28;19928;-42
2023/01/06 09:19:27;;;;;;;;;;;;;;;9.53;nan;101751.66;5039600;28;19931;-38
2023/01/06 09:21:52;;;;;;;;;;;;;;;9.51;nan;101743.00;5043837;28;19964;-38
2023/01/06 09:24:18;;;;;;;;;;;;;;;9.53;nan;101745.47;5042709;28;20206;-38
2023/01/06 09:26:43;;;;;;;;;;;;;;;9.56;nan;101740.50;5042783;28;19975;-38
2023/01/06 09:29:09;;;;;;;;;;;;;;;9.55;nan;101736.19;5042205;28;20290;-40
2023/01/06 09:31:34;;;;;;;;;;;;;;;9.57;nan;101728.75;5040544;28;20080;-39
2023/01/06 09:33:59;;;;;;;;;;;;;;;9.62;nan;101720.91;5046148;28;20378;-36
2023/01/06 09:36:25;;;;;;;;;;;;;;;9.74;nan;101718.34;5038564;28;19921;-38
2023/01/06 09:38:50;;;;;;;;;;;;;;;9.78;nan;101716.84;5044760;28;19921;-38
2023/01/06 09:41:24;;;;;;;;;;;;;;;9.84;nan;101726.69;5044571;28;20010;-38
2023/01/06 09:43:58;;;;;;;;;;;;;;;9.87;nan;101718.22;5038284;28;19924;-38
2023/01/06 09:46:29;;;;;;;;;;;;;;;9.86;nan;101724.59;5041621;28;19921;-41
2023/01/06 09:49:17;;;;;;;;;;;;;;;9.90;nan;101720.47;5042065;28;19928;-40
2023/01/06 09:51:43;;;;;;;;;;;;;;;9.94;nan;101712.81;5021408;28;19917;-41
2023/01/06 09:54:08;;;;;;;;;;;;;;;9.98;nan;101716.69;5040710;28;19931;-39
2023/01/06 09:56:33;;;;;;;;;;;;;;;9.90;nan;101703.59;5040886;28;20359;-37
2023/01/06 09:59:07;;;;;;;;;;;;;;;9.90;nan;101699.06;5043496;28;20032;-40
2023/01/06 10:01:44;;;;;;;;;;;;;;;9.90;nan;101687.53;5041514;28;20400;-39
2023/01/06 10:04:15;;;;;;;;;;;;;;;9.92;nan;101685.44;5043914;28;19920;-40
2023/01/06 10:06:44;;;;;;;;;;;;;;;9.94;nan;101691.41;5038554;28;19927;-38
2023/01/06 10:09:16;;;;;;;;;;;;;;;9.86;nan;101683.63;5042626;28;19983;-39
2023/01/06 10:12:01;;;;;;;;;;;;;;;9.86;nan;101684.44;5045179;28;19917;-41
2023/01/06 10:14:49;;;;;;;;;;;;;;;9.87;nan;101679.91;5039288;28;19932;-41
2023/01/06 10:17:33;;;;;;;;;;;;;;;9.80;nan;101671.97;5039708;28;19932;-39
2023/01/06 10:20:07;;;;;;;;;;;;;;;9.83;nan;101666.16;5039044;28;20510;-39
2023/01/06 10:22:52;;;;;;;;;;;;;;;9.80;nan;101655.09;5037291;28;19971;-39
2023/01/06 10:25:20;;;;;;;;;;;;;;;9.82;nan;101653.00;5041034;28;20071;-38
2023/01/06 10:27:52;;;;;;;;;;;;;;;9.80;nan;101634.50;5038693;28;19924;-41
2023/01/06 10:30:29;;;;;;;;;;;;;;;9.84;nan;101621.47;5042838;28;19929;-42
2023/01/06 10:32:55;;;;;;;;;;;;;;;9.94;nan;101625.28;5041701;28;20115;-40
2023/01/06 10:35:23;;;;;;;;;;;;;;;9.96;nan;101617.84;5044102;28;19920;-40
2023/01/06 10:37:50;;;;;;;;;;;;;;;9.94;nan;101625.28;5036378;28;19925;-40
2023/01/06 10:40:24;;;;;;;;;;;;;;;9.93;nan;101617.47;5041183;28;20020;-39
2023/01/06 10:43:02;;;;;;;;;;;;;;;9.97;nan;101608.78;5041872;28;19935;-37
2023/01/06 10:45:32;;;;;;;;;;;;;;;10.02;nan;101601.94;5039527;28;19925;-41
2023/01/06 10:47:59;;;;;;;;;;;;;;;10.11;nan;101603.28;5036594;28;19975;-39
2023/01/06 10:50:25;;;;;;;;;;;;;;;10.11;nan;101604.09;5036237;28;19987;-43
2023/01/06 10:52:50;;;;;;;;;;;;;;;10.07;nan;101607.44;5043455;28;20512;-41
2023/01/06 10:55:25;;;;;;;;;;;;;;;10.13;nan;101595.84;5041362;28;20054;-42
2023/01/06 10:57:51;;;;;;;;;;;;;;;10.20;nan;101588.53;5042345;28;19969;-42
2023/01/06 11:00:21;;;;;;;;;;;;;;;10.25;nan;101583.38;5042769;28;20313;-40
2023/01/06 11:02:51;;;;;;;;;;;;;;;10.23;nan;101575.56;5039671;28;19974;-43
2023/01/06 11:05:21;;;;;;;;;;;;;;;10.32;nan;101576.06;5043413;28;19924;-44
2023/01/06 11:07:50;;;;;;;;;;;;;;;10.42;nan;101579.03;5040119;28;19971;-42
2023/01/06 11:10:26;;;;;;;;;;;;;;;10.44;nan;101589.50;5037146;28;19968;-44
2023/01/06 11:12:52;;;;;;;;;;;;;;;10.46;nan;101582.88;5043401;28;20358;-42
2023/01/06 11:15:21;;;;;;;;;;;;;;;10.52;nan;101578.47;5044211;28;19967;-42
2023/01/06 11:17:47;;;;;;;;;;;;;;;10.53;nan;101574.75;5037585;28;20031;-40
2023/01/06 11:20:12;;;;;;;;;;;;;;;10.56;nan;101577.78;5039886;28;20015;-39
2023/01/06 11:22:39;;;;;;;;;;;;;;;10.64;nan;101573.16;5040638;28;19948;-43
2023/01/06 11:25:19;;;;;;;;;;;;;;;10.74;nan;101560.00;5039213;28;19920;-45
2023/01/06 11:27:46;;;;;;;;;;;;;;;10.77;nan;101546.13;5042613;28;19927;-43
2023/01/06 11:30:24;;;;;;;;;;;;;;;10.84;nan;101542.31;5041843;28;20010;-41
2023/01/06 11:32:49;;;;;;;;;;;;;;;10.89;nan;101541.63;5041539;28;19920;-42
2023/01/06 11:35:18;;;;;;;;;;;;;;;10.94;nan;101533.69;5038940;28;19921;-43
2023/01/06 11:37:44;;;;;;;;;;;;;;;10.97;nan;101538.63;5041812;28;20436;-45
2023/01/06 11:40:26;;;;;;;;;;;;;;;11.01;nan;101539.78;5038953;28;19924;-41
2023/01/06 11:42:53;;;;;;;;;;;;;;;11.02;nan;101536.06;5042034;28;19921;-42
2023/01/06 11:45:33;;;;;;;;;;;;;;;11.02;nan;101525.34;5039625;28;19929;-44
2023/01/06 11:47:59;;;;;;;;;;;;;;;11.03;nan;101526.97;5036198;28;19925;-43
2023/01/06 11:50:24;;;;;;;;;;;;;;;11.06;nan;101525.69;5038902;28;20008;-42
2023/01/06 11:53:00;;;;;;;;;;;;;;;11.04;nan;101515.19;5043709;28;19927;-41
2023/01/06 11:55:26;;;;;;;;;;;;;;;11.10;nan;101511.56;5038547;28;20016;-44
2023/01/06 11:58:10;;;;;;;;;;;;;;;11.13;nan;101508.44;5040143;28;19967;-39
2023/01/06 12:00:39;;;;;;;;;;;;;;;11.12;nan;101514.81;5038665;28;19920;-42
2023/01/06 12:03:16;;;;;;;;;;;;;;;11.15;nan;101508.22;5041564;28;19928;-42
2023/01/06 12:05:45;;;;;;;;;;;;;;;11.17;nan;101506.09;5041348;28;19920;-40
2023/01/06 12:08:22;;;;;;;;;;;;;;;11.17;nan;101495.38;5037738;28;20413;-44
2023/01/06 12:10:52;;;;;;;;;;;;;;;11.22;nan;101497.34;5042252;28;20338;-41
2023/01/06 12:13:18;;;;;;;;;;;;;;;11.30;nan;101499.66;5034961;28;19920;-42
2023/01/06 12:15:45;;;;;;;;;;;;;;;11.37;nan;101485.09;5037131;28;19927;-43
2023/01/06 12:18:20;;;;;;;;;;;;;;;11.48;nan;101494.16;5034294;28;19925;-39
2023/01/06 12:20:48;;;;;;;;;;;;;;;11.49;nan;101485.09;5035956;28;20318;-44
2023/01/06 12:23:19;;;;;;;;;;;;;;;11.50;nan;101494.78;5037867;28;19921;-42
2023/01/06 12:25:46;;;;;;;;;;;;;;;11.54;nan;101479.81;5037602;28;19921;-42
2023/01/06 12:28:20;;;;;;;;;;;;;;;11.58;nan;101480.97;5042470;28;19921;-41
2023/01/06 12:30:46;;;;;;;;;;;;;;;11.53;nan;101477.38;5037182;28;20328;-42
2023/01/06 12:33:29;;;;;;;;;;;;;;;11.56;nan;101472.34;5038867;28;20482;-42
2023/01/06 12:35:56;;;;;;;;;;;;;;;11.53;nan;101478.19;5040167;28;19929;-40
2023/01/06 12:38:21;;;;;;;;;;;;;;;11.58;nan;101469.41;5039745;28;19923;-43
2023/01/06 12:40:54;;;;;;;;;;;;;;;11.61;nan;101472.44;5036519;28;20297;-42
2023/01/06 12:43:22;;;;;;;;;;;;;;;11.63;nan;101464.16;5041810;28;20405;-40
2023/01/06 12:45:51;;;;;;;;;;;;;;;11.68;nan;101459.72;5036063;28;20327;-41
2023/01/06 12:48:21;;;;;;;;;;;;;;;11.72;nan;101460.88;5038103;28;19928;-39
2023/01/06 12:50:55;;;;;;;;;;;;;;;11.80;nan;101457.00;5035053;28;20505;-42
2023/01/06 12:53:20;;;;;;;;;;;;;;;11.83;nan;101455.72;5038910;28;20422;-41
2023/01/06 12:55:46;;;;;;;;;;;;;;;11.85;nan;101446.41;5036145;28;19979;-41
2023/01/06 12:58:11;;;;;;;;;;;;;;;11.94;nan;101449.50;5040954;28;19916;-42
2023/01/06 13:00:55;;;;;;;;;;;;;;;12.04;nan;101452.38;5035778;28;19921;-39
2023/01/06 13:03:24;;;;;;;;;;;;;;;12.07;nan;101438.47;5036974;28;19920;-42
2023/01/06 13:06:07;;;;;;;;;;;;;;;12.12;nan;101435.88;5043829;28;19921;-40
2023/01/06 13:08:51;;;;;;;;;;;;;;;12.20;nan;101431.97;5038559;28;19943;-40
2023/01/06 13:11:35;;;;;;;;;;;;;;;12.27;nan;101436.16;5035149;28;19932;-42